createdAt,value
2022-10-18T00:01:10.739Z,3.70
2022-10-18T00:03:38.761Z,3.25
2022-10-18T00:06:08.956Z,3.53
2022-10-18T00:08:36.973Z,3.58
2022-10-18T00:11:06.254Z,3.50
2022-10-18T00:13:33.904Z,3.67
2022-10-18T00:16:04.567Z,3.80
2022-10-18T00:18:32.340Z,3.58
2022-10-18T00:21:01.864Z,3.63
2022-10-18T00:23:30.806Z,3.67
2022-10-18T00:26:03.481Z,3.83
2022-10-18T00:28:32.472Z,3.22
2022-10-18T00:31:11.319Z,3.58
2022-10-18T00:33:38.979Z,3.50
2022-10-18T00:36:07.148Z,3.42
2022-10-18T00:38:34.716Z,3.50
2022-10-18T00:41:02.264Z,4.00
2022-10-18T00:43:29.792Z,3.50
2022-10-18T00:45:58.677Z,3.42
2022-10-18T00:48:26.248Z,3.85
2022-10-18T00:50:54.341Z,3.50
2022-10-18T00:53:23.755Z,3.92
2022-10-18T00:55:51.829Z,3.33
2022-10-18T00:58:20.761Z,3.92
2022-10-18T01:00:48.408Z,4.40
2022-10-18T01:03:17.276Z,4.00
2022-10-18T01:05:47.537Z,3.28
2022-10-18T01:08:30.193Z,3.60
2022-10-18T01:11:10.776Z,3.85
2022-10-18T01:13:52.181Z,3.50
2022-10-18T01:16:27.402Z,3.25
2022-10-18T01:19:05.917Z,3.10
2022-10-18T01:21:44.230Z,3.25
2022-10-18T01:27:43.988Z,2.85
2022-10-18T01:30:41.804Z,3.10
2022-10-18T01:33:18.332Z,3.47
2022-10-18T01:35:50.104Z,2.97
2022-10-18T01:38:20.283Z,3.60
2022-10-18T01:40:51.297Z,3.13
2022-10-18T01:43:21.573Z,2.95
2022-10-18T01:45:51.577Z,3.35
2022-10-18T01:48:20.077Z,3.35
2022-10-18T01:50:47.604Z,3.25
2022-10-18T01:53:32.364Z,3.40
2022-10-18T01:56:17.348Z,3.35
2022-10-18T01:59:06.287Z,3.00
2022-10-18T02:01:45.322Z,3.15
2022-10-18T02:04:24.136Z,3.28
2022-10-18T02:06:58.907Z,3.63
2022-10-18T02:09:39.226Z,3.10
2022-10-18T02:12:11.904Z,3.00
2022-10-18T02:14:40.844Z,3.47
2022-10-18T02:17:13.260Z,3.20
2022-10-18T02:19:44.194Z,3.25
2022-10-18T02:22:13.644Z,3.00
2022-10-18T02:24:45.765Z,3.17
2022-10-18T02:27:13.776Z,3.10
2022-10-18T02:29:42.545Z,3.00
2022-10-18T02:32:19.307Z,4.05
2022-10-18T02:34:50.213Z,3.00
2022-10-18T02:37:18.571Z,4.18
2022-10-18T02:39:48.669Z,3.08
2022-10-18T02:42:16.694Z,2.70
2022-10-18T02:44:44.227Z,3.20
2022-10-18T02:47:13.552Z,2.88
2022-10-18T02:49:41.186Z,3.08
2022-10-18T02:52:08.739Z,3.03
2022-10-18T02:54:36.252Z,3.17
2022-10-18T02:57:03.748Z,3.03
2022-10-18T02:59:31.317Z,3.70
2022-10-18T03:01:58.837Z,3.33
2022-10-18T03:06:56.323Z,2.72
2022-10-18T03:09:23.865Z,2.78
2022-10-18T03:11:51.385Z,2.80
2022-10-18T03:14:18.881Z,2.80
2022-10-18T03:16:46.466Z,2.95
2022-10-18T03:19:14.035Z,3.45
2022-10-18T03:21:42.884Z,3.10
2022-10-18T03:24:10.391Z,2.90
2022-10-18T03:26:37.909Z,2.58
2022-10-18T03:29:05.554Z,3.08
2022-10-18T03:31:33.664Z,3.20
2022-10-18T03:34:01.208Z,2.80
2022-10-18T03:36:28.797Z,3.03
2022-10-18T03:38:57.724Z,2.42
2022-10-18T03:41:25.359Z,2.50
2022-10-18T03:43:52.848Z,2.97
2022-10-18T03:46:20.365Z,3.08
2022-10-18T03:48:47.876Z,3.35
2022-10-18T03:51:15.402Z,3.08
2022-10-18T03:53:42.947Z,3.28
2022-10-18T03:56:11.840Z,3.03
2022-10-18T03:58:39.363Z,2.55
2022-10-18T04:01:07.047Z,3.13
2022-10-18T04:03:34.547Z,2.90
2022-10-18T04:06:03.517Z,2.65
2022-10-18T04:08:31.170Z,2.83
2022-10-18T04:10:58.703Z,2.63
2022-10-18T04:13:27.588Z,2.38
2022-10-18T04:15:55.093Z,2.80
2022-10-18T04:18:22.601Z,2.50
2022-10-18T04:20:50.087Z,2.83
2022-10-18T04:23:17.629Z,3.30
2022-10-18T04:25:45.180Z,3.33
2022-10-18T04:28:12.703Z,3.38
2022-10-18T04:30:41.548Z,3.20
2022-10-18T04:33:09.136Z,3.10
2022-10-18T04:35:37.245Z,3.60
2022-10-18T04:38:04.764Z,2.80
2022-10-18T04:40:32.265Z,2.83
2022-10-18T04:42:59.769Z,3.60
2022-10-18T04:45:27.285Z,3.20
2022-10-18T04:47:56.127Z,3.00
2022-10-18T04:50:23.683Z,2.75
2022-10-18T04:52:53.387Z,2.50
2022-10-18T04:55:21.603Z,2.90
2022-10-18T04:57:49.124Z,3.03
2022-10-18T05:00:16.831Z,3.40
2022-10-18T05:02:44.372Z,3.15
2022-10-18T05:05:14.191Z,2.90
2022-10-18T05:07:42.255Z,3.20
2022-10-18T05:10:10.471Z,3.40
2022-10-18T05:12:38.006Z,3.70
2022-10-18T05:15:06.399Z,3.40
2022-10-18T05:17:33.941Z,3.40
2022-10-18T05:20:01.495Z,3.33
2022-10-18T05:22:30.635Z,2.90
2022-10-18T05:24:58.384Z,3.33
2022-10-18T05:27:25.960Z,3.92
2022-10-18T05:29:53.461Z,3.65
2022-10-18T05:32:21.056Z,3.30
2022-10-18T05:34:48.582Z,3.35
2022-10-18T05:37:16.089Z,3.75
2022-10-18T05:39:44.925Z,3.80
2022-10-18T05:42:12.456Z,5.35
2022-10-18T05:44:40.015Z,3.85
2022-10-18T05:47:07.486Z,3.83
2022-10-18T05:49:35.955Z,3.22
2022-10-18T05:52:03.580Z,3.78
2022-10-18T05:54:31.096Z,3.95
2022-10-18T05:56:59.949Z,6.60
2022-10-18T05:59:27.479Z,5.63
2022-10-18T06:01:54.982Z,4.47
2022-10-18T06:04:22.565Z,5.05
2022-10-18T06:06:50.068Z,4.00
2022-10-18T06:09:17.628Z,3.97
2022-10-18T06:11:45.140Z,3.40
2022-10-18T06:14:14.153Z,4.07
2022-10-18T06:16:41.678Z,3.38
2022-10-18T06:19:09.184Z,3.08
2022-10-18T06:21:36.724Z,3.17
2022-10-18T06:24:04.614Z,2.90
2022-10-18T06:26:32.107Z,3.25
2022-10-18T06:28:59.658Z,2.88
2022-10-18T06:31:28.623Z,2.75
2022-10-18T06:33:57.229Z,4.05
2022-10-18T06:36:25.480Z,5.65
2022-10-18T06:38:53.724Z,6.80
2022-10-18T06:41:22.053Z,4.65
2022-10-18T06:43:50.111Z,4.47
2022-10-18T06:46:18.093Z,4.22
2022-10-18T06:48:47.395Z,4.00
2022-10-18T06:51:15.134Z,3.55
2022-10-18T06:53:59.301Z,3.58
2022-10-18T06:56:31.397Z,3.33
2022-10-18T07:01:31.695Z,3.42
2022-10-18T07:04:00.615Z,3.05
2022-10-18T07:06:28.167Z,3.40
2022-10-18T07:08:56.104Z,2.92
2022-10-18T07:11:26.112Z,3.30
2022-10-18T07:14:00.244Z,4.07
2022-10-18T07:16:27.825Z,3.22
2022-10-18T07:18:55.359Z,2.80
2022-10-18T07:21:25.843Z,3.58
2022-10-18T07:23:54.230Z,2.53
2022-10-18T07:26:23.994Z,3.40
2022-10-18T07:28:55.191Z,3.03
2022-10-18T07:31:24.085Z,2.90
2022-10-18T07:33:51.880Z,3.03
2022-10-18T07:36:21.164Z,3.15
2022-10-18T07:38:51.798Z,7.05
2022-10-18T07:41:20.482Z,6.50
2022-10-18T07:43:50.718Z,3.17
2022-10-18T07:46:19.760Z,2.83
2022-10-18T07:48:47.810Z,2.63
2022-10-18T07:51:15.693Z,3.28
2022-10-18T07:53:43.427Z,3.67
2022-10-18T07:56:16.396Z,3.05
2022-10-18T07:58:44.566Z,2.92
2022-10-18T08:01:12.738Z,3.45
2022-10-18T08:03:40.765Z,3.38
2022-10-18T08:06:10.253Z,3.15
2022-10-18T08:08:39.668Z,3.13
2022-10-18T08:11:09.870Z,3.08
2022-10-18T08:13:38.790Z,4.43
2022-10-18T08:16:08.335Z,2.58
2022-10-18T08:18:36.396Z,3.22
2022-10-18T08:21:06.221Z,2.72
2022-10-18T08:23:35.306Z,2.67
2022-10-18T08:26:03.861Z,2.95
2022-10-18T08:28:31.681Z,2.83
2022-10-18T08:31:04.863Z,2.50
2022-10-18T08:33:32.703Z,3.30
2022-10-18T08:36:02.104Z,5.05
2022-10-18T08:38:31.772Z,3.17
2022-10-18T08:41:01.060Z,2.33
2022-10-18T08:43:37.042Z,3.00
2022-10-18T08:46:06.316Z,2.28
2022-10-18T08:48:39.892Z,2.72
2022-10-18T08:51:18.251Z,3.00
2022-10-18T08:53:57.653Z,2.40
2022-10-18T08:56:28.332Z,2.55
2022-10-18T08:58:56.106Z,2.17
2022-10-18T09:01:39.162Z,2.17
2022-10-18T09:04:35.404Z,1.48
2022-10-18T09:07:22.264Z,1.90
2022-10-18T09:09:56.385Z,1.52
2022-10-18T09:12:48.941Z,2.00
2022-10-18T09:15:22.963Z,2.15
2022-10-18T09:18:04.961Z,1.98
2022-10-18T09:20:40.494Z,1.88
2022-10-18T09:23:19.486Z,1.80
2022-10-18T09:25:49.317Z,1.60
2022-10-18T09:28:25.092Z,1.98
2022-10-18T09:30:59.855Z,1.83
2022-10-18T09:33:49.231Z,1.73
2022-10-18T09:36:21.742Z,2.00
2022-10-18T09:38:56.048Z,1.90
2022-10-18T09:41:29.343Z,1.65
2022-10-18T09:44:01.513Z,1.90
2022-10-18T09:46:33.983Z,2.03
2022-10-18T09:49:06.881Z,2.40
2022-10-18T09:51:37.842Z,2.00
2022-10-18T09:54:21.211Z,2.40
2022-10-18T09:56:52.232Z,2.00
2022-10-18T09:59:34.837Z,2.15
2022-10-18T10:02:02.470Z,2.05
2022-10-18T10:04:31.649Z,1.90
2022-10-18T10:07:02.034Z,1.90
2022-10-18T10:09:31.337Z,2.42
2022-10-18T10:11:59.595Z,2.05
2022-10-18T10:14:30.204Z,1.80
2022-10-18T10:17:02.111Z,2.00
2022-10-18T10:19:33.900Z,2.13
2022-10-18T10:22:06.390Z,2.17
2022-10-18T10:24:47.497Z,2.17
2022-10-18T10:27:21.224Z,2.13
2022-10-18T10:30:00.462Z,2.33
2022-10-18T10:32:39.283Z,2.35
2022-10-18T10:35:33.925Z,3.20
2022-10-18T10:38:03.528Z,2.30
2022-10-18T10:40:32.796Z,2.40
2022-10-18T10:43:18.340Z,2.42
2022-10-18T10:46:02.051Z,2.72
2022-10-18T10:48:33.658Z,3.08
2022-10-18T10:51:09.716Z,2.53
2022-10-18T10:53:46.726Z,2.47
2022-10-18T10:56:22.589Z,3.45
2022-10-18T10:58:51.907Z,2.30
2022-10-18T11:01:26.932Z,2.30
2022-10-18T11:03:57.266Z,2.70
2022-10-18T11:06:51.096Z,3.08
2022-10-18T11:09:45.263Z,2.05
2022-10-18T11:12:28.043Z,2.22
2022-10-18T11:15:11.702Z,2.33
2022-10-18T11:20:22.270Z,2.60
2022-10-18T11:23:00.822Z,2.33
2022-10-18T11:25:41.537Z,2.20
2022-10-18T11:28:18.544Z,2.28
2022-10-18T11:30:59.883Z,2.00
2022-10-18T11:34:07.216Z,1.70
2022-10-18T11:36:33.984Z,2.20
2022-10-18T11:39:16.865Z,1.85
2022-10-18T11:41:52.712Z,2.53
2022-10-18T11:44:28.435Z,2.17
2022-10-18T11:47:05.481Z,1.92
2022-10-18T11:49:45.108Z,2.40
2022-10-18T11:52:20.138Z,1.65
2022-10-18T11:55:05.880Z,2.10
2022-10-18T11:57:43.819Z,1.85
2022-10-18T12:00:33.584Z,1.80
2022-10-18T12:03:31.319Z,2.00
2022-10-18T12:06:04.825Z,2.45
2022-10-18T12:08:36.945Z,2.00
2022-10-18T12:11:13.664Z,1.75
2022-10-18T12:13:46.805Z,2.00
2022-10-18T12:16:15.327Z,2.40
2022-10-18T12:18:50.739Z,1.90
2022-10-18T12:21:25.426Z,2.03
2022-10-18T12:23:57.615Z,1.90
2022-10-18T12:26:29.022Z,2.17
2022-10-18T12:29:09.222Z,1.85
2022-10-18T12:31:41.504Z,1.88
2022-10-18T12:34:26.944Z,1.67
2022-10-18T12:37:21.229Z,1.83
2022-10-18T12:42:45.520Z,1.60
2022-10-18T12:47:54.386Z,1.70
2022-10-18T12:50:30.292Z,1.20
2022-10-18T12:53:18.850Z,1.35
2022-10-18T12:55:49.011Z,1.50
2022-10-18T12:58:27.454Z,1.67
2022-10-18T13:01:03.162Z,1.10
2022-10-18T13:03:53.989Z,1.02
2022-10-18T13:06:22.708Z,0.93
2022-10-18T13:09:17.680Z,1.15
2022-10-18T13:11:46.043Z,1.05
2022-10-18T13:14:48.213Z,1.30
2022-10-18T13:17:33.882Z,1.05
2022-10-18T13:20:28.098Z,1.50
2022-10-18T13:23:18.069Z,1.40
2022-10-18T13:26:02.198Z,1.40
2022-10-18T13:28:40.021Z,1.27
2022-10-18T13:31:24.201Z,1.17
2022-10-18T13:33:52.052Z,1.30
2022-10-18T13:36:24.581Z,1.52
2022-10-18T13:39:05.101Z,1.55
2022-10-18T13:42:14.679Z,1.65
2022-10-18T13:44:44.618Z,1.30
2022-10-18T13:47:15.043Z,1.23
2022-10-18T13:50:16.787Z,1.40
2022-10-18T13:53:13.515Z,1.63
2022-10-18T13:55:56.185Z,1.80
2022-10-18T13:58:41.081Z,1.77
2022-10-18T14:01:25.676Z,1.50
2022-10-18T14:04:38.784Z,1.75
2022-10-18T14:07:08.463Z,1.98
2022-10-18T14:09:45.076Z,1.65
2022-10-18T14:12:23.717Z,1.52
2022-10-18T14:14:58.761Z,1.75
2022-10-18T14:17:34.904Z,2.15
2022-10-18T14:20:15.579Z,2.28
2022-10-18T14:22:48.703Z,1.52
2022-10-18T14:25:22.599Z,2.13
2022-10-18T14:27:53.671Z,2.40
2022-10-18T14:30:23.936Z,2.03
2022-10-18T14:32:54.385Z,1.92
2022-10-18T14:35:32.968Z,1.98
2022-10-18T14:38:01.909Z,2.13
2022-10-18T14:40:37.932Z,1.90
2022-10-18T14:43:11.300Z,2.10
2022-10-18T14:48:14.780Z,1.92
2022-10-18T14:50:44.173Z,1.85
2022-10-18T14:53:17.550Z,2.15
2022-10-18T14:58:21.971Z,2.15
2022-10-18T15:00:51.128Z,2.38
2022-10-18T15:03:19.339Z,1.92
2022-10-18T15:05:55.429Z,2.40
2022-10-18T15:08:25.000Z,3.55
2022-10-18T15:10:53.196Z,2.38
2022-10-18T15:13:20.861Z,2.28
2022-10-18T15:15:48.627Z,2.50
2022-10-18T15:18:22.673Z,2.58
2022-10-18T15:21:20.247Z,2.30
2022-10-18T15:23:47.824Z,2.60
2022-10-18T15:26:21.437Z,2.15
2022-10-18T15:28:53.019Z,2.40
2022-10-18T15:31:26.669Z,2.08
2022-10-18T15:34:08.842Z,2.00
2022-10-18T15:36:37.181Z,2.30
2022-10-18T15:39:07.429Z,2.10
2022-10-18T15:41:44.674Z,2.70
2022-10-18T15:44:26.023Z,3.28
2022-10-18T15:46:56.261Z,2.67
2022-10-18T15:49:51.199Z,2.25
2022-10-18T15:52:36.634Z,3.17
2022-10-18T15:55:39.112Z,2.80
2022-10-18T15:58:12.422Z,3.40
2022-10-18T16:03:08.740Z,2.97
2022-10-18T16:05:38.859Z,3.50
2022-10-18T16:08:06.689Z,3.33
2022-10-18T16:10:34.316Z,3.20
2022-10-18T16:13:01.857Z,2.63
2022-10-18T16:15:29.406Z,3.42
2022-10-18T16:17:56.914Z,14.93
2022-10-18T16:20:26.759Z,7.15
2022-10-18T16:22:55.646Z,4.47
2022-10-18T16:25:23.154Z,3.97
2022-10-18T16:27:50.731Z,3.35
2022-10-18T16:30:20.917Z,3.17
2022-10-18T16:32:48.834Z,3.00
2022-10-18T16:35:16.594Z,3.38
2022-10-18T16:37:44.092Z,2.88
2022-10-18T16:40:23.306Z,3.10
2022-10-18T16:42:50.855Z,3.50
2022-10-18T16:45:19.448Z,3.65
2022-10-18T16:47:47.261Z,4.80
2022-10-18T16:50:17.977Z,4.57
2022-10-18T16:52:48.445Z,3.95
2022-10-18T16:55:21.238Z,3.95
2022-10-18T16:57:51.786Z,3.63
2022-10-18T17:00:21.641Z,3.67
2022-10-18T17:02:50.061Z,3.65
2022-10-18T17:05:19.038Z,3.90
2022-10-18T17:07:47.322Z,3.35
2022-10-18T17:10:16.641Z,3.60
2022-10-18T17:12:44.181Z,4.03
2022-10-18T17:15:13.665Z,4.28
2022-10-18T17:17:41.432Z,5.38
2022-10-18T17:20:10.085Z,4.20
2022-10-18T17:22:37.757Z,4.28
2022-10-18T17:25:05.768Z,3.88
2022-10-18T17:27:33.543Z,3.75
2022-10-18T17:30:01.448Z,3.63
2022-10-18T17:32:30.347Z,3.83
2022-10-18T17:34:58.626Z,3.97
2022-10-18T17:37:26.273Z,4.22
2022-10-18T17:39:53.784Z,4.53
2022-10-18T17:42:21.947Z,4.05
2022-10-18T17:44:51.905Z,3.92
2022-10-18T17:47:20.520Z,4.15
2022-10-18T17:49:49.377Z,3.60
2022-10-18T17:52:16.983Z,7.15
2022-10-18T17:54:44.516Z,9.32
2022-10-18T17:57:12.027Z,5.85
2022-10-18T17:59:39.595Z,4.50
2022-10-18T18:02:07.216Z,12.77
2022-10-18T18:04:34.801Z,15.27
2022-10-18T18:07:04.387Z,7.75
2022-10-18T18:09:32.187Z,5.70
2022-10-18T18:12:00.161Z,4.70
2022-10-18T18:14:27.811Z,4.57
2022-10-18T18:16:55.370Z,4.30
2022-10-18T18:19:23.837Z,4.80
2022-10-18T18:21:53.526Z,4.63
2022-10-18T18:24:24.644Z,4.22
2022-10-18T18:26:53.576Z,4.28
2022-10-18T18:29:21.264Z,4.57
2022-10-18T18:31:49.424Z,4.63
2022-10-18T18:34:17.635Z,4.47
2022-10-18T18:36:45.507Z,4.53
2022-10-18T18:39:20.718Z,4.53
2022-10-18T18:41:51.159Z,4.30
2022-10-18T18:44:20.099Z,4.22
2022-10-18T18:46:48.185Z,4.40
2022-10-18T18:49:15.875Z,4.10
2022-10-18T18:51:43.565Z,4.28
2022-10-18T18:54:13.845Z,3.55
2022-10-18T18:56:42.605Z,3.90
2022-10-18T18:59:13.783Z,4.00
2022-10-18T19:01:42.111Z,3.92
2022-10-18T19:04:11.015Z,4.13
2022-10-18T19:06:41.193Z,4.45
2022-10-18T19:09:13.182Z,4.65
2022-10-18T19:11:40.783Z,4.18
2022-10-18T19:14:09.142Z,3.85
2022-10-18T19:16:39.246Z,4.78
2022-10-18T19:19:08.916Z,3.67
2022-10-18T19:21:38.306Z,3.95
2022-10-18T19:24:06.893Z,4.28
2022-10-18T19:26:37.105Z,3.90
2022-10-18T19:29:09.359Z,4.30
2022-10-18T19:31:39.141Z,4.00
2022-10-18T19:34:08.856Z,3.92
2022-10-18T19:36:36.877Z,3.80
2022-10-18T19:39:05.817Z,3.90
2022-10-18T19:41:33.489Z,3.20
2022-10-18T19:44:01.178Z,16.08
2022-10-18T19:46:29.068Z,10.13
2022-10-18T19:48:58.533Z,6.22
2022-10-18T19:51:28.316Z,6.78
2022-10-18T19:53:57.111Z,5.43
2022-10-18T19:56:26.127Z,5.80
2022-10-18T19:58:54.365Z,4.50
2022-10-18T20:01:22.073Z,4.25
2022-10-18T20:03:49.810Z,3.50
2022-10-18T20:06:19.033Z,3.40
2022-10-18T20:08:46.630Z,3.17
2022-10-18T20:11:17.393Z,3.25
2022-10-18T20:13:44.943Z,3.42
2022-10-18T20:16:20.127Z,3.05
2022-10-18T20:18:49.677Z,3.38
2022-10-18T20:21:18.756Z,6.13
2022-10-18T20:23:46.405Z,5.15
2022-10-18T20:26:19.636Z,6.18
2022-10-18T20:28:55.594Z,9.43
2022-10-18T20:31:24.952Z,12.90
2022-10-18T20:33:55.602Z,8.43
2022-10-18T20:36:24.795Z,3.80
2022-10-18T20:38:53.175Z,3.72
2022-10-18T20:41:22.676Z,2.80
2022-10-18T20:43:53.831Z,3.30
2022-10-18T20:46:21.815Z,3.53
2022-10-18T20:48:50.349Z,10.68
2022-10-18T20:51:18.196Z,8.55
2022-10-18T20:53:47.156Z,7.85
2022-10-18T20:56:16.000Z,4.88
2022-10-18T20:58:45.147Z,6.13
2022-10-18T21:01:15.180Z,5.30
2022-10-18T21:03:45.406Z,4.43
2022-10-18T21:06:14.312Z,3.42
2022-10-18T21:08:42.393Z,3.30
2022-10-18T21:11:11.900Z,3.33
2022-10-18T21:13:40.684Z,3.88
2022-10-18T21:16:08.650Z,4.70
2022-10-18T21:18:37.507Z,4.65
2022-10-18T21:21:09.184Z,4.57
2022-10-18T21:23:36.899Z,4.10
2022-10-18T21:26:05.189Z,4.50
2022-10-18T21:28:34.262Z,4.50
2022-10-18T21:31:14.401Z,3.80
2022-10-18T21:33:42.357Z,4.00
2022-10-18T21:36:10.595Z,4.20
2022-10-18T21:38:38.760Z,3.95
2022-10-18T21:41:09.628Z,4.10
2022-10-18T21:43:40.409Z,3.80
2022-10-18T21:46:08.529Z,4.35
2022-10-18T21:48:36.033Z,4.15
2022-10-18T21:51:04.767Z,5.30
2022-10-18T21:53:32.547Z,4.45
2022-10-18T21:56:05.712Z,3.97
2022-10-18T21:58:33.553Z,4.07
2022-10-18T22:01:02.734Z,4.28
2022-10-18T22:03:30.321Z,4.30
2022-10-18T22:05:59.187Z,4.00
2022-10-18T22:08:26.707Z,4.47
2022-10-18T22:10:54.380Z,4.80
2022-10-18T22:13:21.903Z,5.10
2022-10-18T22:15:49.695Z,5.25
2022-10-18T22:18:19.093Z,4.72
2022-10-18T22:20:54.384Z,4.95
2022-10-18T22:23:22.024Z,4.80
2022-10-18T22:25:49.940Z,4.45
2022-10-18T22:28:17.642Z,4.00
2022-10-18T22:30:45.144Z,4.68
2022-10-18T22:33:12.660Z,4.50
2022-10-18T22:35:41.501Z,4.28
2022-10-18T22:38:09.019Z,4.32
2022-10-18T22:40:36.523Z,4.78
2022-10-18T22:43:04.057Z,4.45
2022-10-18T22:45:31.585Z,3.88
2022-10-18T22:47:59.191Z,3.72
2022-10-18T22:50:26.785Z,4.78
2022-10-18T22:52:55.632Z,4.95
2022-10-18T22:55:23.673Z,4.22
2022-10-18T22:57:51.207Z,4.72
2022-10-18T23:00:18.716Z,5.05
2022-10-18T23:02:46.233Z,4.88
2022-10-18T23:05:13.752Z,4.15
2022-10-18T23:07:41.265Z,4.60
2022-10-18T23:10:10.392Z,4.28
2022-10-18T23:12:37.999Z,4.18
2022-10-18T23:15:06.546Z,4.63
2022-10-18T23:17:34.376Z,4.45
2022-10-18T23:20:02.073Z,4.78
2022-10-18T23:22:29.602Z,5.38
2022-10-18T23:24:57.187Z,4.93
2022-10-18T23:27:26.023Z,5.28
2022-10-18T23:29:53.612Z,4.78
2022-10-18T23:32:21.135Z,5.43
2022-10-18T23:34:48.701Z,5.38
2022-10-18T23:37:16.212Z,5.53
2022-10-18T23:39:43.715Z,5.00
2022-10-18T23:42:11.376Z,5.00
2022-10-18T23:44:40.289Z,5.07
2022-10-18T23:47:07.849Z,4.43
2022-10-18T23:49:35.582Z,4.40
2022-10-18T23:52:03.092Z,5.15
2022-10-18T23:54:30.624Z,5.28
2022-10-18T23:56:58.205Z,4.65
2022-10-18T23:59:25.953Z,5.20
